Terminal Aerodrome Forecast
Issued by NWS Spokane, WA

Home | Current Version | Previous Version | Text Only | Print | Product List | Glossary On
Versions: 1 2 3 4 5 6 7 8 9 10 11 12 13 14 15 16 17 18 19 20 21 22 23 24 25 26 27 28 29 30 31 32 33 34 35 36 37 38 39 40 41 42 43 44 45 46 47 48
000
FTUS46 KOTX 210529
TAFGEG
TAF
KGEG 210529Z 2106/2206 20016G20KT 5SM -RA BR BKN008 OVC015
     FM210900 22020G25KT 4SM -RA BR OVC006 WS016/23045KT
     FM211300 23022G36KT 5SM BR BKN010 OVC080
     FM211800 23020G30KT P6SM SCT025 BKN090
     FM220000 24018G24KT P6SM SCT050 BKN100=

USA.gov is the U.S. government's official web portal to all federal, state and local government web resources and services.